createdAt,value
2023-08-11T00:00:05.803Z,14.10
2023-08-11T00:02:39.852Z,14.10
2023-08-11T00:05:08.911Z,14.00
2023-08-11T00:07:37.361Z,14.00
2023-08-11T00:10:06.668Z,14.00
2023-08-11T00:12:34.651Z,14.00
2023-08-11T00:15:04.537Z,13.90
2023-08-11T00:17:33.309Z,14.00
2023-08-11T00:20:01.889Z,14.00
2023-08-11T00:22:29.881Z,14.00
2023-08-11T00:24:57.832Z,13.90
2023-08-11T00:27:25.793Z,14.00
2023-08-11T00:29:55.362Z,14.00
2023-08-11T00:32:24.692Z,14.00
2023-08-11T00:34:53.339Z,14.00
2023-08-11T00:37:21.624Z,13.90
2023-08-11T00:39:52.615Z,13.90
2023-08-11T00:42:21.472Z,13.80
2023-08-11T00:44:49.476Z,13.70
2023-08-11T00:47:17.781Z,13.60
2023-08-11T00:49:47.113Z,13.70
2023-08-11T00:52:15.162Z,13.70
2023-08-11T00:54:45.635Z,13.70
2023-08-11T00:57:15.492Z,13.70
2023-08-11T00:59:43.636Z,13.70
2023-08-11T01:02:12.498Z,13.60
2023-08-11T01:04:41.950Z,13.50
2023-08-11T01:07:19.716Z,13.40
2023-08-11T01:09:56.479Z,13.40
2023-08-11T01:12:34.197Z,13.30
2023-08-11T01:15:11.733Z,13.30
2023-08-11T01:17:41.969Z,13.30
2023-08-11T01:20:13.071Z,13.40
2023-08-11T01:22:46.363Z,13.40
2023-08-11T01:25:16.599Z,13.40
2023-08-11T01:27:47.114Z,13.20
2023-08-11T01:30:17.644Z,13.20
2023-08-11T01:32:46.466Z,13.10
2023-08-11T01:35:19.760Z,13.10
2023-08-11T01:37:57.651Z,13.10
2023-08-11T01:40:28.025Z,13.20
2023-08-11T01:42:58.409Z,13.10
2023-08-11T01:45:28.208Z,13.10
2023-08-11T01:47:57.747Z,13.20
2023-08-11T01:50:28.161Z,13.20
2023-08-11T01:52:56.644Z,13.20
2023-08-11T01:55:27.357Z,13.10
2023-08-11T01:57:59.306Z,13.00
2023-08-11T02:00:28.844Z,13.00
2023-08-11T02:02:58.522Z,13.00
2023-08-11T02:05:26.986Z,12.90
2023-08-11T02:07:56.553Z,13.00
2023-08-11T02:10:26.353Z,13.00
2023-08-11T02:12:54.308Z,13.00
2023-08-11T02:15:22.490Z,12.90
2023-08-11T02:17:50.869Z,13.00
2023-08-11T02:20:22.872Z,13.00
2023-08-11T02:22:52.933Z,12.90
2023-08-11T02:25:21.279Z,12.90
2023-08-11T02:27:50.665Z,12.90
2023-08-11T02:30:19.397Z,12.90
2023-08-11T02:32:47.618Z,12.90
2023-08-11T02:35:19.058Z,12.90
2023-08-11T02:37:47.548Z,12.80
2023-08-11T02:40:16.608Z,12.70
2023-08-11T02:42:46.874Z,12.70
2023-08-11T02:45:16.511Z,12.70
2023-08-11T02:47:44.583Z,12.70
2023-08-11T02:50:14.407Z,12.70
2023-08-11T02:52:42.614Z,12.70
2023-08-11T02:55:12.472Z,12.70
2023-08-11T02:57:40.473Z,12.60
2023-08-11T03:00:13.751Z,12.60
2023-08-11T03:02:43.669Z,12.70
2023-08-11T03:05:12.839Z,12.70
2023-08-11T03:07:42.539Z,12.70
2023-08-11T03:10:11.318Z,12.70
2023-08-11T03:12:41.644Z,12.60
2023-08-11T03:15:11.368Z,12.50
2023-08-11T03:17:39.842Z,12.40
2023-08-11T03:20:14.335Z,12.30
2023-08-11T03:22:43.862Z,12.50
2023-08-11T03:25:13.233Z,12.60
2023-08-11T03:27:43.376Z,12.60
2023-08-11T03:30:16.128Z,12.50
2023-08-11T03:32:49.484Z,12.50
2023-08-11T03:35:20.692Z,12.50
2023-08-11T03:37:51.313Z,12.60
2023-08-11T03:40:19.402Z,12.50
2023-08-11T03:42:54.477Z,12.40
2023-08-11T03:45:23.827Z,12.40
2023-08-11T03:47:52.060Z,12.30
2023-08-11T03:50:26.412Z,12.30
2023-08-11T03:52:54.375Z,12.30
2023-08-11T03:55:23.582Z,12.10
2023-08-11T03:57:52.725Z,12.10
2023-08-11T04:00:25.048Z,12.20
2023-08-11T04:03:10.681Z,12.20
2023-08-11T04:05:40.173Z,12.10
2023-08-11T04:08:08.127Z,12.20
2023-08-11T04:10:37.037Z,12.30
2023-08-11T04:13:05.454Z,12.40
2023-08-11T04:15:35.221Z,12.40
2023-08-11T04:18:03.483Z,12.50
2023-08-11T04:20:31.674Z,12.50
2023-08-11T04:23:01.049Z,12.60
2023-08-11T04:25:29.371Z,12.60
2023-08-11T04:27:57.437Z,12.60
2023-08-11T04:30:25.862Z,12.70
2023-08-11T04:32:55.080Z,12.60
2023-08-11T04:35:24.259Z,12.70
2023-08-11T04:37:52.450Z,12.80
2023-08-11T04:40:23.349Z,13.00
2023-08-11T04:42:53.714Z,13.00
2023-08-11T04:45:28.647Z,12.90
2023-08-11T04:47:57.105Z,13.10
2023-08-11T04:50:25.243Z,13.40
2023-08-11T04:52:57.710Z,13.60
2023-08-11T04:55:27.117Z,13.90
2023-08-11T04:57:55.744Z,14.30
2023-08-11T05:00:24.140Z,14.80
2023-08-11T05:02:53.504Z,15.70
2023-08-11T05:05:22.914Z,16.50
2023-08-11T05:07:51.277Z,17.20
2023-08-11T05:10:19.519Z,17.80
2023-08-11T05:12:50.919Z,18.30
2023-08-11T05:15:19.184Z,18.70
2023-08-11T05:17:47.359Z,18.80
2023-08-11T05:20:16.398Z,19.20
2023-08-11T05:22:45.214Z,19.50
2023-08-11T05:25:13.214Z,19.80
2023-08-11T05:27:41.258Z,20.40
2023-08-11T05:30:11.471Z,20.20
2023-08-11T05:32:39.540Z,20.60
2023-08-11T05:35:09.269Z,21.10
2023-08-11T05:37:38.340Z,21.00
2023-08-11T05:40:08.443Z,21.20
2023-08-11T05:42:36.470Z,21.80
2023-08-11T05:45:05.118Z,22.40
2023-08-11T05:47:34.498Z,22.30
2023-08-11T05:50:02.544Z,22.10
2023-08-11T05:52:30.528Z,22.80
2023-08-11T05:54:58.498Z,23.40
2023-08-11T05:57:26.403Z,24.30
2023-08-11T05:59:54.503Z,24.80
2023-08-11T06:02:22.459Z,25.10
2023-08-11T06:04:53.134Z,25.50
2023-08-11T06:07:21.240Z,26.00
2023-08-11T06:09:49.148Z,26.20
2023-08-11T06:12:17.118Z,27.00
2023-08-11T06:14:45.120Z,27.00
2023-08-11T06:17:13.478Z,27.00
2023-08-11T06:19:41.695Z,26.70
2023-08-11T06:22:11.310Z,27.20
2023-08-11T06:24:39.703Z,27.90
2023-08-11T06:27:08.150Z,28.70
2023-08-11T06:29:36.647Z,29.00
2023-08-11T06:32:05.151Z,29.50
2023-08-11T06:34:33.075Z,30.40
2023-08-11T06:37:01.127Z,30.50
2023-08-11T06:39:30.431Z,30.40
2023-08-11T06:41:58.423Z,30.60
2023-08-11T06:44:46.526Z,30.90
2023-08-11T06:47:14.443Z,30.50
2023-08-11T06:49:42.374Z,29.70
2023-08-11T06:52:10.651Z,30.30
2023-08-11T06:54:41.883Z,30.60
2023-08-11T06:57:10.212Z,31.30
2023-08-11T06:59:38.411Z,32.80
2023-08-11T07:02:06.635Z,32.90
2023-08-11T07:04:34.977Z,33.70
2023-08-11T07:07:03.312Z,33.80
2023-08-11T07:09:31.284Z,34.20
2023-08-11T07:12:00.592Z,35.20
2023-08-11T07:14:28.825Z,36.10
2023-08-11T07:16:56.788Z,36.30
2023-08-11T07:19:24.795Z,36.10
2023-08-11T07:21:52.837Z,36.60
2023-08-11T07:24:20.774Z,36.60
2023-08-11T07:26:48.724Z,36.60
2023-08-11T07:29:18.056Z,37.20
2023-08-11T07:31:46.167Z,37.90
2023-08-11T07:34:14.364Z,39.20
2023-08-11T07:36:42.530Z,40.00
2023-08-11T07:39:22.001Z,40.50
2023-08-11T07:41:51.400Z,40.90
2023-08-11T07:44:20.770Z,41.30
2023-08-11T07:46:48.883Z,41.80
2023-08-11T07:49:17.066Z,41.50
2023-08-11T07:51:45.195Z,42.40
2023-08-11T07:54:14.505Z,43.20
2023-08-11T07:56:42.710Z,42.20
2023-08-11T07:59:10.699Z,42.90
2023-08-11T08:01:40.107Z,42.90
2023-08-11T08:04:08.158Z,42.00
2023-08-11T08:06:37.884Z,42.50
2023-08-11T08:09:11.988Z,41.70
2023-08-11T08:11:40.154Z,43.00
2023-08-11T08:14:08.552Z,42.20
2023-08-11T08:16:37.004Z,42.40
2023-08-11T08:19:07.246Z,42.40
2023-08-11T08:21:35.429Z,41.70
2023-08-11T08:24:05.404Z,40.30
2023-08-11T08:26:33.751Z,39.80
2023-08-11T08:29:02.143Z,40.80
2023-08-11T08:31:30.153Z,41.00
2023-08-11T08:33:58.438Z,41.20
2023-08-11T08:36:28.270Z,41.40
2023-08-11T08:38:56.391Z,41.00
2023-08-11T08:41:29.391Z,41.90
2023-08-11T08:43:58.113Z,43.80
2023-08-11T08:46:29.264Z,44.60
2023-08-11T08:49:06.169Z,43.90
2023-08-11T08:51:37.072Z,43.20
2023-08-11T08:54:06.190Z,43.80
2023-08-11T08:56:34.554Z,44.40
2023-08-11T08:59:02.522Z,44.10
2023-08-11T09:01:30.841Z,42.80
2023-08-11T09:04:00.302Z,42.80
2023-08-11T09:06:29.026Z,44.20
2023-08-11T09:09:00.554Z,44.30
2023-08-11T09:11:29.232Z,43.60
2023-08-11T09:14:03.837Z,44.30
2023-08-11T09:16:33.532Z,44.80
2023-08-11T09:19:01.909Z,44.50
2023-08-11T09:21:29.978Z,45.40
2023-08-11T09:23:59.530Z,45.10
2023-08-11T09:26:28.259Z,44.70
2023-08-11T09:28:57.035Z,44.10
2023-08-11T09:31:26.137Z,44.80
2023-08-11T09:33:54.928Z,45.30
2023-08-11T09:36:23.161Z,45.60
2023-08-11T09:38:51.511Z,41.60
2023-08-11T09:41:20.853Z,43.90
2023-08-11T09:43:49.704Z,45.40
2023-08-11T09:46:25.399Z,46.70
2023-08-11T09:48:55.065Z,46.00
2023-08-11T09:51:24.023Z,45.90
2023-08-11T09:53:53.544Z,45.60
2023-08-11T09:56:25.002Z,45.60
2023-08-11T09:58:56.606Z,44.50
2023-08-11T10:01:26.241Z,44.90
2023-08-11T10:03:57.490Z,45.50
2023-08-11T10:06:29.686Z,43.20
2023-08-11T10:09:02.490Z,43.90
2023-08-11T10:11:35.423Z,44.20
2023-08-11T10:14:05.953Z,44.20
2023-08-11T10:16:34.478Z,42.50
2023-08-11T10:19:03.449Z,43.80
2023-08-11T10:21:32.034Z,44.40
2023-08-11T10:24:00.925Z,45.60
2023-08-11T10:26:30.291Z,45.30
2023-08-11T10:29:00.342Z,45.90
2023-08-11T10:31:32.863Z,46.80
2023-08-11T10:34:07.895Z,45.70
2023-08-11T10:36:36.149Z,45.20
2023-08-11T10:39:05.862Z,45.40
2023-08-11T10:41:34.296Z,44.40
2023-08-11T10:44:06.469Z,45.40
2023-08-11T10:46:34.780Z,44.70
2023-08-11T10:49:21.249Z,43.80
2023-08-11T10:51:51.831Z,44.70
2023-08-11T10:54:25.999Z,44.70
2023-08-11T10:56:55.451Z,44.80
2023-08-11T10:59:27.554Z,44.70
2023-08-11T11:01:57.809Z,45.60
2023-08-11T11:04:29.833Z,45.90
2023-08-11T11:06:59.807Z,45.80
2023-08-11T11:09:29.789Z,46.40
2023-08-11T11:11:58.987Z,46.20
2023-08-11T11:14:30.886Z,44.60
2023-08-11T11:17:01.626Z,44.40
2023-08-11T11:19:29.930Z,43.50
2023-08-11T11:21:58.285Z,43.20
2023-08-11T11:24:26.438Z,44.30
2023-08-11T11:26:54.469Z,44.70
2023-08-11T11:29:24.870Z,45.10
2023-08-11T11:31:55.173Z,44.00
2023-08-11T11:34:23.335Z,43.70
2023-08-11T11:36:51.481Z,42.30
2023-08-11T11:39:20.098Z,43.30
2023-08-11T11:41:48.095Z,43.80
2023-08-11T11:44:16.757Z,42.20
2023-08-11T11:46:45.085Z,43.50
2023-08-11T11:49:29.249Z,41.80
2023-08-11T11:51:58.338Z,42.00
2023-08-11T11:54:29.969Z,41.40
2023-08-11T11:57:05.025Z,41.70
2023-08-11T11:59:34.971Z,41.50
2023-08-11T12:02:03.515Z,39.40
2023-08-11T12:04:33.125Z,36.00
2023-08-11T12:07:02.512Z,34.70
2023-08-11T12:09:30.554Z,33.70
2023-08-11T12:11:58.597Z,33.20
2023-08-11T12:14:28.340Z,32.80
2023-08-11T12:16:58.245Z,32.10
2023-08-11T12:19:26.474Z,31.90
2023-08-11T12:21:55.823Z,31.70
2023-08-11T12:24:24.525Z,31.30
2023-08-11T12:26:52.506Z,31.10
2023-08-11T12:29:20.485Z,31.10
2023-08-11T12:31:48.439Z,30.90
2023-08-11T12:34:16.392Z,30.80
2023-08-11T12:36:44.346Z,30.80
2023-08-11T12:39:13.818Z,30.70
2023-08-11T12:41:41.772Z,30.60
2023-08-11T12:44:09.808Z,30.10
2023-08-11T12:46:38.453Z,29.60
2023-08-11T12:49:06.679Z,29.90
2023-08-11T12:51:34.654Z,29.60
2023-08-11T12:54:02.660Z,29.40
2023-08-11T12:56:32.139Z,29.40
2023-08-11T12:59:00.180Z,29.70
2023-08-11T13:01:28.278Z,29.70
2023-08-11T13:03:56.749Z,29.60
2023-08-11T13:06:24.943Z,29.30
2023-08-11T13:08:53.208Z,29.50
2023-08-11T13:11:21.163Z,29.20
2023-08-11T13:13:50.476Z,29.40
2023-08-11T13:16:18.561Z,29.20
2023-08-11T13:18:46.559Z,29.00
2023-08-11T13:21:14.534Z,28.80
2023-08-11T13:23:44.449Z,29.10
2023-08-11T13:26:13.404Z,29.20
2023-08-11T13:28:41.703Z,29.40
2023-08-11T13:31:11.148Z,29.50
2023-08-11T13:33:39.170Z,29.50
2023-08-11T13:36:07.352Z,29.50
2023-08-11T13:38:35.358Z,29.40
2023-08-11T13:41:03.435Z,29.50
2023-08-11T13:43:31.457Z,29.40
2023-08-11T13:45:59.461Z,29.40
2023-08-11T13:48:30.825Z,29.20
2023-08-11T13:50:59.481Z,29.30
2023-08-11T13:53:27.458Z,29.30
2023-08-11T13:55:55.416Z,29.40
2023-08-11T13:58:23.435Z,29.50
2023-08-11T14:00:51.504Z,29.40
2023-08-11T14:03:19.505Z,29.40
2023-08-11T14:05:48.933Z,29.30
2023-08-11T14:08:17.018Z,29.00
2023-08-11T14:10:44.977Z,28.90
2023-08-11T14:13:13.777Z,29.10
2023-08-11T14:15:41.803Z,28.90
2023-08-11T14:18:09.871Z,29.00
2023-08-11T14:20:38.673Z,28.80
2023-08-11T14:23:08.007Z,28.60
2023-08-11T14:25:35.993Z,28.60
2023-08-11T14:28:04.234Z,28.50
2023-08-11T14:30:32.236Z,28.70
2023-08-11T14:33:00.207Z,28.90
2023-08-11T14:35:28.193Z,29.10
2023-08-11T14:37:56.374Z,29.20
2023-08-11T14:40:25.940Z,29.30
2023-08-11T14:42:53.974Z,29.10
2023-08-11T14:45:21.985Z,28.90
2023-08-11T14:47:49.996Z,28.80
2023-08-11T14:50:18.262Z,28.70
2023-08-11T14:52:46.200Z,28.70
2023-08-11T14:55:14.384Z,28.60
2023-08-11T14:57:43.695Z,28.60
2023-08-11T15:00:14.616Z,28.40
2023-08-11T15:02:42.694Z,28.50
2023-08-11T15:05:11.201Z,28.50
2023-08-11T15:07:39.279Z,28.80
2023-08-11T15:10:08.701Z,28.80
2023-08-11T15:12:36.813Z,28.80
2023-08-11T15:15:07.251Z,28.70
2023-08-11T15:17:35.256Z,28.60
2023-08-11T15:20:03.508Z,28.40
2023-08-11T15:22:31.451Z,28.50
2023-08-11T15:25:02.178Z,28.40
2023-08-11T15:27:30.235Z,28.40
2023-08-11T15:29:58.253Z,28.40
2023-08-11T15:32:27.721Z,28.20
2023-08-11T15:34:55.837Z,28.30
2023-08-11T15:37:23.799Z,28.10
2023-08-11T15:39:51.821Z,28.10
2023-08-11T15:42:19.818Z,28.00
2023-08-11T15:44:48.919Z,28.10
2023-08-11T15:47:16.927Z,28.00
2023-08-11T15:49:46.242Z,28.10
2023-08-11T15:52:14.246Z,28.10
2023-08-11T15:54:42.170Z,28.10
2023-08-11T15:57:10.161Z,28.10
2023-08-11T15:59:38.101Z,28.30
2023-08-11T16:02:10.413Z,28.20
2023-08-11T16:04:38.964Z,28.10
2023-08-11T16:07:08.331Z,28.00
2023-08-11T16:09:36.351Z,28.00
2023-08-11T16:12:04.527Z,28.10
2023-08-11T16:14:33.265Z,28.10
2023-08-11T16:17:01.277Z,28.00
2023-08-11T16:19:29.299Z,28.00
2023-08-11T16:21:57.339Z,28.00
2023-08-11T16:24:26.648Z,28.10
2023-08-11T16:26:54.676Z,28.10
2023-08-11T16:29:22.636Z,28.10
2023-08-11T16:31:50.937Z,27.90
2023-08-11T16:34:18.995Z,27.90
2023-08-11T16:36:46.957Z,27.90
2023-08-11T16:39:15.086Z,27.70
2023-08-11T16:41:44.473Z,27.60
2023-08-11T16:44:12.492Z,27.70
2023-08-11T16:46:40.432Z,27.80
2023-08-11T16:49:09.108Z,27.70
2023-08-11T16:51:37.101Z,27.70
2023-08-11T16:54:05.668Z,27.60
2023-08-11T16:56:33.864Z,27.60
2023-08-11T16:59:03.824Z,27.50
2023-08-11T17:01:31.832Z,27.60
2023-08-11T17:04:00.018Z,27.70
2023-08-11T17:06:28.539Z,27.50
2023-08-11T17:08:56.522Z,27.40
2023-08-11T17:11:24.526Z,27.30
2023-08-11T17:13:52.601Z,27.20
2023-08-11T17:16:22.035Z,27.10
2023-08-11T17:18:51.118Z,27.00
2023-08-11T17:21:20.681Z,26.80
2023-08-11T17:23:48.797Z,26.90
2023-08-11T17:26:17.109Z,27.00
2023-08-11T17:28:45.074Z,26.90
2023-08-11T17:31:13.164Z,26.70
2023-08-11T17:33:42.605Z,26.60
2023-08-11T17:36:10.593Z,26.50
2023-08-11T17:38:38.584Z,26.50
2023-08-11T17:41:06.700Z,26.40
2023-08-11T17:43:34.659Z,26.30
2023-08-11T17:46:02.817Z,26.30
2023-08-11T17:48:31.089Z,26.20
2023-08-11T17:51:00.391Z,26.20
2023-08-11T17:53:28.541Z,26.20
2023-08-11T17:55:56.613Z,26.00
2023-08-11T17:58:24.564Z,26.00
2023-08-11T18:00:52.679Z,26.00
2023-08-11T18:03:20.769Z,25.80
2023-08-11T18:05:48.795Z,25.60
2023-08-11T18:08:18.076Z,25.50
2023-08-11T18:10:46.048Z,25.30
2023-08-11T18:13:14.110Z,25.30
2023-08-11T18:15:42.151Z,25.30
2023-08-11T18:18:10.134Z,25.20
2023-08-11T18:20:38.144Z,25.10
2023-08-11T18:23:06.137Z,25.00
2023-08-11T18:25:36.267Z,25.00
2023-08-11T18:28:04.611Z,24.80
2023-08-11T18:30:32.598Z,24.70
2023-08-11T18:33:00.644Z,24.70
2023-08-11T18:35:28.662Z,24.50
2023-08-11T18:37:56.628Z,24.50
2023-08-11T18:40:24.996Z,24.40
2023-08-11T18:42:54.468Z,24.20
2023-08-11T18:45:22.455Z,24.20
2023-08-11T18:47:52.775Z,24.10
2023-08-11T18:50:20.764Z,24.00
2023-08-11T18:52:49.775Z,23.90
2023-08-11T18:55:17.926Z,23.90
2023-08-11T18:57:45.917Z,23.70
2023-08-11T19:00:17.104Z,23.70
2023-08-11T19:02:45.227Z,23.50
2023-08-11T19:05:13.381Z,23.40
2023-08-11T19:07:41.334Z,23.30
2023-08-11T19:10:09.909Z,23.20
2023-08-11T19:12:37.954Z,23.20
2023-08-11T19:15:07.000Z,23.20
2023-08-11T19:17:36.942Z,23.10
2023-08-11T19:20:05.787Z,23.00
2023-08-11T19:22:33.777Z,22.90
2023-08-11T19:25:01.747Z,22.80
2023-08-11T19:27:29.713Z,22.70
2023-08-11T19:29:57.668Z,22.60
2023-08-11T19:32:25.624Z,22.60
2023-08-11T19:34:56.671Z,22.50
2023-08-11T19:37:24.701Z,22.40
2023-08-11T19:39:53.044Z,22.20
2023-08-11T19:42:21.110Z,22.20
2023-08-11T19:44:50.414Z,22.20
2023-08-11T19:47:18.400Z,22.00
2023-08-11T19:49:46.361Z,22.10
2023-08-11T19:52:20.095Z,22.00
2023-08-11T19:54:48.219Z,22.00
2023-08-11T19:57:16.914Z,21.90
2023-08-11T19:59:45.065Z,21.80
2023-08-11T20:02:13.203Z,21.70
2023-08-11T20:04:41.603Z,21.60
2023-08-11T20:07:10.000Z,21.60
2023-08-11T20:09:39.473Z,21.40
2023-08-11T20:12:07.992Z,21.40
2023-08-11T20:14:36.089Z,21.30
2023-08-11T20:17:04.542Z,21.20
2023-08-11T20:19:32.591Z,21.20
2023-08-11T20:22:01.434Z,21.20
2023-08-11T20:24:29.414Z,21.20
2023-08-11T20:26:59.663Z,21.20
2023-08-11T20:29:27.698Z,21.20
2023-08-11T20:31:57.040Z,21.20
2023-08-11T20:34:26.264Z,21.20
2023-08-11T20:36:54.354Z,21.00
2023-08-11T20:39:22.863Z,20.80
2023-08-11T20:41:55.543Z,20.70
2023-08-11T20:44:25.285Z,20.70
2023-08-11T20:46:54.542Z,20.70
2023-08-11T20:49:22.835Z,20.60
2023-08-11T20:51:51.771Z,20.50
2023-08-11T20:54:19.716Z,20.30
2023-08-11T20:56:47.759Z,20.30
2023-08-11T20:59:15.814Z,20.20
2023-08-11T21:01:45.373Z,20.20
2023-08-11T21:04:13.488Z,20.00
2023-08-11T21:06:41.499Z,19.90
2023-08-11T21:09:09.540Z,19.80
2023-08-11T21:11:37.645Z,19.80
2023-08-11T21:14:09.174Z,19.90
2023-08-11T21:16:38.653Z,19.80
2023-08-11T21:19:08.204Z,19.70
2023-08-11T21:21:36.950Z,19.60
2023-08-11T21:24:05.459Z,19.50
2023-08-11T21:26:33.474Z,19.40
2023-08-11T21:29:01.387Z,19.40
2023-08-11T21:31:29.382Z,19.40
2023-08-11T21:34:02.261Z,19.30
2023-08-11T21:36:31.626Z,19.20
2023-08-11T21:39:00.236Z,19.10
2023-08-11T21:41:28.345Z,19.00
2023-08-11T21:43:56.306Z,18.90
2023-08-11T21:46:24.473Z,18.90
2023-08-11T21:48:52.533Z,18.70
2023-08-11T21:51:20.634Z,18.60
2023-08-11T21:53:49.945Z,18.60
2023-08-11T21:56:18.335Z,18.50
2023-08-11T21:58:46.319Z,18.50
2023-08-11T22:01:14.406Z,18.40
2023-08-11T22:03:42.429Z,18.40
2023-08-11T22:06:13.819Z,18.20
2023-08-11T22:08:42.466Z,18.20
2023-08-11T22:11:26.155Z,18.10
2023-08-11T22:13:59.872Z,18.20
2023-08-11T22:16:27.933Z,18.20
2023-08-11T22:18:56.007Z,18.20
2023-08-11T22:21:24.024Z,18.00
2023-08-11T22:23:52.136Z,18.10
2023-08-11T22:26:21.843Z,18.10
2023-08-11T22:28:50.976Z,18.00
2023-08-11T22:31:18.965Z,17.90
2023-08-11T22:33:47.085Z,17.90
2023-08-11T22:36:15.070Z,17.80
2023-08-11T22:38:43.134Z,17.70
2023-08-11T22:41:11.093Z,17.70
2023-08-11T22:43:40.504Z,17.70
2023-08-11T22:46:08.558Z,17.60
2023-08-11T22:48:36.579Z,17.50
2023-08-11T22:51:04.822Z,17.50
2023-08-11T22:53:34.159Z,17.50
2023-08-11T22:56:02.106Z,17.50
2023-08-11T22:58:30.153Z,17.50
2023-08-11T23:01:01.461Z,17.50
2023-08-11T23:03:29.436Z,17.50
2023-08-11T23:05:57.765Z,17.50
2023-08-11T23:08:25.718Z,17.50
2023-08-11T23:10:53.696Z,17.50
2023-08-11T23:13:21.705Z,17.50
2023-08-11T23:15:49.714Z,17.50
2023-08-11T23:18:19.054Z,17.40
2023-08-11T23:20:47.143Z,17.40
2023-08-11T23:23:15.102Z,17.40
2023-08-11T23:25:43.969Z,17.30
2023-08-11T23:28:12.483Z,17.20
2023-08-11T23:30:40.476Z,17.20
2023-08-11T23:33:08.736Z,17.10
2023-08-11T23:35:40.107Z,17.10
2023-08-11T23:38:08.045Z,17.10
2023-08-11T23:40:36.109Z,17.10
2023-08-11T23:43:05.006Z,17.20
2023-08-11T23:45:33.215Z,17.10
2023-08-11T23:48:01.228Z,17.00
2023-08-11T23:50:29.413Z,16.90
2023-08-11T23:52:58.713Z,16.80
2023-08-11T23:55:26.983Z,16.80
2023-08-11T23:57:55.365Z,16.80
